Time;durP1;ratioP1;P1;durP2;ratioP2;P2;SDS_P1;SDS_P2;PMS_P1;PMS_P2;Temp;Humidity;BMP_temperature;BMP_pressure;BME280_temperature;BME280_humidity;BME280_pressure;Samples;Min_cycle;Max_cycle;Signal;HPM_P1;HPM_P2
2023/10/06 00:02:59;;;;;;;18.58;11.63;;;20.00;99.90;;;;;;5064450;28;20052;-77
2023/10/06 00:05:29;;;;;;;20.05;11.95;;;19.70;99.90;;;;;;5061628;28;20032;-77
2023/10/06 00:07:57;;;;;;;18.75;11.75;;;19.60;99.90;;;;;;5080199;28;20043;-76
2023/10/06 00:10:27;;;;;;;21.73;12.30;;;19.70;99.90;;;;;;5088304;28;20043;-76
2023/10/06 00:12:58;;;;;;;30.93;12.33;;;19.80;99.90;;;;;;5085182;28;20480;-77
2023/10/06 00:15:38;;;;;;;20.48;11.93;;;19.80;99.90;;;;;;5090101;28;20683;-77
2023/10/06 00:18:07;;;;;;;18.08;11.43;;;19.70;99.90;;;;;;5086797;28;20119;-77
2023/10/06 00:20:39;;;;;;;18.73;11.40;;;19.70;99.90;;;;;;5087246;28;20040;-79
2023/10/06 00:23:12;;;;;;;16.55;10.05;;;19.50;99.90;;;;;;5087206;28;20036;-76
2023/10/06 00:25:42;;;;;;;15.70;10.73;;;19.70;99.90;;;;;;5087511;28;20048;-77
2023/10/06 00:28:19;;;;;;;18.75;11.98;;;19.80;99.90;;;;;;5082410;28;20037;-78
2023/10/06 00:30:56;;;;;;;21.25;12.48;;;19.60;99.90;;;;;;5088929;28;20074;-76
2023/10/06 00:33:38;;;;;;;17.98;11.98;;;19.50;99.90;;;;;;5090408;28;20496;-75
2023/10/06 00:36:16;;;;;;;19.40;12.23;;;19.40;99.90;;;;;;5086662;28;20044;-77
2023/10/06 00:38:45;;;;;;;21.50;12.10;;;19.30;99.90;;;;;;5087535;28;20105;-75
2023/10/06 00:41:16;;;;;;;20.92;12.27;;;19.40;99.90;;;;;;5081927;28;20059;-74
2023/10/06 00:43:46;;;;;;;;;;;19.30;99.90;;;;;;5075104;28;20036;-74
2023/10/06 00:46:16;;;;;;;21.00;12.25;;;19.40;99.90;;;;;;5077471;28;19924;-76
2023/10/06 00:48:45;;;;;;;18.92;12.05;;;19.30;99.90;;;;;;5056609;28;20048;-78
2023/10/06 00:51:21;;;;;;;17.42;12.18;;;19.30;99.90;;;;;;5077601;28;20043;-78
2023/10/06 00:53:52;;;;;;;19.98;11.25;;;19.30;99.90;;;;;;5078251;28;20040;-76
2023/10/06 00:56:23;;;;;;;;;;;19.00;99.90;;;;;;5075494;28;20119;-76
2023/10/06 00:58:52;;;;;;;21.60;12.45;;;19.00;99.90;;;;;;5075432;28;19931;-75
2023/10/06 01:01:19;;;;;;;21.55;12.70;;;19.00;99.90;;;;;;5075965;28;20086;-76
2023/10/06 01:03:49;;;;;;;25.75;13.82;;;19.10;99.90;;;;;;5078194;28;20032;-77
2023/10/06 01:06:23;;;;;;;18.17;12.27;;;19.20;99.90;;;;;;5074093;28;20040;-76
2023/10/06 01:09:05;;;;;;;20.85;12.57;;;19.30;99.90;;;;;;5078060;28;20371;-76
2023/10/06 01:11:49;;;;;;;21.45;12.27;;;19.10;99.90;;;;;;5073853;28;20040;-74
2023/10/06 01:14:27;;;;;;;20.33;13.38;;;19.20;99.90;;;;;;5063581;28;20510;-76
2023/10/06 01:17:11;;;;;;;23.33;13.38;;;19.20;99.90;;;;;;5059781;28;20068;-74
2023/10/06 01:19:47;;;;;;;26.50;11.80;;;19.00;99.90;;;;;;5070528;28;20036;-76
2023/10/06 01:22:28;;;;;;;20.80;12.98;;;18.80;99.90;;;;;;5076130;28;20036;-76
2023/10/06 01:24:58;;;;;;;26.95;13.20;;;18.80;99.90;;;;;;5078039;28;20031;-74
2023/10/06 01:27:28;;;;;;;21.05;12.95;;;19.00;99.90;;;;;;5069306;28;20097;-75
2023/10/06 01:32:58;;;;;;;24.63;13.13;;;19.10;99.90;;;;;;4986742;28;20148;-76
2023/10/06 01:35:26;;;;;;;22.38;13.38;;;19.00;99.90;;;;;;5057798;28;20049;-76
2023/10/06 01:37:59;;;;;;;24.92;13.00;;;18.70;99.90;;;;;;5066277;28;20037;-77
2023/10/06 01:42:54;;;;;;;26.95;12.95;;;18.00;99.90;;;;;;5077401;28;20032;-78
2023/10/06 01:45:22;;;;;;;19.45;12.00;;;17.60;99.90;;;;;;5073691;28;20033;-75
2023/10/06 01:47:55;;;;;;;19.40;12.00;;;18.20;99.90;;;;;;5067510;28;20044;-75
2023/10/06 01:50:27;;;;;;;18.77;11.13;;;18.50;99.90;;;;;;5072055;28;20123;-75
2023/10/06 01:52:58;;;;;;;21.02;12.65;;;18.80;99.90;;;;;;5074123;28;20370;-76
2023/10/06 01:55:26;;;;;;;19.98;11.50;;;18.90;99.90;;;;;;5072434;28;20447;-75
2023/10/06 01:57:54;;;;;;;19.13;12.15;;;18.90;99.90;;;;;;5075094;28;20490;-75
2023/10/06 02:00:31;;;;;;;21.60;12.35;;;18.90;99.90;;;;;;5073385;28;20559;-76
2023/10/06 02:03:00;;;;;;;18.10;12.55;;;18.70;99.90;;;;;;5068785;28;20115;-75
2023/10/06 02:05:27;;;;;;;20.75;12.23;;;18.60;99.90;;;;;;5065262;28;20487;-77
2023/10/06 02:08:04;;;;;;;25.50;12.40;;;18.60;99.90;;;;;;5070448;28;20037;-75
2023/10/06 02:10:32;;;;;;;22.45;12.48;;;18.60;99.90;;;;;;5053838;28;20045;-76
2023/10/06 02:12:59;;;;;;;18.23;12.32;;;18.60;99.90;;;;;;5047844;28;20052;-78
2023/10/06 02:15:26;;;;;;;18.83;12.13;;;18.60;99.90;;;;;;5072904;28;20041;-75
2023/10/06 02:17:54;;;;;;;17.13;11.18;;;18.70;99.90;;;;;;5069650;28;20085;-77
2023/10/06 02:22:52;;;;;;;15.27;9.88;;;18.80;99.90;;;;;;5074083;28;20455;-77
2023/10/06 02:25:23;;;;;;;14.30;9.48;;;18.80;99.90;;;;;;5057340;28;20062;-76
2023/10/06 02:27:50;;;;;;;15.55;9.85;;;18.90;99.90;;;;;;5071347;28;20041;-75
2023/10/06 02:30:19;;;;;;;16.27;10.38;;;19.00;99.90;;;;;;5072748;28;20037;-76
2023/10/06 02:32:46;;;;;;;15.27;9.68;;;19.00;99.90;;;;;;5073869;28;20028;-76
2023/10/06 02:35:17;;;;;;;16.73;10.57;;;18.70;99.90;;;;;;5072734;28;20099;-77
2023/10/06 02:37:49;;;;;;;15.45;9.80;;;18.80;99.90;;;;;;5074364;28;20127;-75
2023/10/06 02:40:17;;;;;;;15.80;10.13;;;18.90;99.90;;;;;;5072971;28;20072;-75
2023/10/06 02:42:51;;;;;;;18.40;9.80;;;18.80;99.90;;;;;;5076914;28;20040;-78
2023/10/06 02:45:20;;;;;;;14.60;9.57;;;18.60;99.90;;;;;;5055219;28;20032;-76
2023/10/06 02:47:48;;;;;;;16.88;10.73;;;18.50;99.90;;;;;;5078345;28;20043;-74
2023/10/06 02:50:21;;;;;;;21.20;10.95;;;18.70;99.90;;;;;;5073062;28;20036;-76
2023/10/06 02:52:53;;;;;;;19.85;11.00;;;18.70;99.90;;;;;;5078961;28;20032;-73
2023/10/06 02:55:30;;;;;;;17.58;10.70;;;18.70;99.90;;;;;;5075840;28;20029;-75
2023/10/06 02:57:58;;;;;;;19.35;11.48;;;18.60;99.90;;;;;;5076847;28;20500;-75
2023/10/06 03:03:02;;;;;;;16.80;9.93;;;18.60;99.90;;;;;;5077822;28;20131;-76
2023/10/06 03:05:38;;;;;;;21.38;10.88;;;18.60;99.90;;;;;;5083529;28;20099;-74
2023/10/06 03:08:09;;;;;;;15.50;10.25;;;18.50;99.90;;;;;;5075734;28;20046;-76
2023/10/06 03:10:44;;;;;;;16.33;10.88;;;18.30;99.90;;;;;;5072356;28;20036;-75
2023/10/06 03:13:15;;;;;;;19.45;10.27;;;18.40;99.90;;;;;;5072789;28;20392;-76
2023/10/06 03:15:45;;;;;;;19.00;11.07;;;18.30;99.90;;;;;;5072783;28;20552;-75
2023/10/06 03:18:15;;;;;;;16.38;10.07;;;18.20;99.90;;;;;;5080026;28;20035;-76
2023/10/06 03:20:47;;;;;;;17.00;10.88;;;18.30;99.90;;;;;;5076078;28;20494;-75
2023/10/06 03:23:32;;;;;;;19.02;10.52;;;18.50;99.90;;;;;;5080156;28;20039;-76
2023/10/06 03:26:03;;;;;;;15.45;9.73;;;18.40;99.90;;;;;;5075677;28;20537;-77
2023/10/06 03:28:36;;;;;;;16.83;10.77;;;18.40;99.90;;;;;;5079621;28;20048;-75
2023/10/06 03:31:22;;;;;;;17.42;11.25;;;18.50;99.90;;;;;;5078740;28;20074;-77
2023/10/06 03:33:54;;;;;;;18.88;10.57;;;18.50;99.90;;;;;;5073025;28;20036;-74
2023/10/06 03:36:43;;;;;;;24.95;11.10;;;18.50;99.90;;;;;;5079891;28;20438;-77
2023/10/06 03:39:13;;;;;;;19.92;10.30;;;18.40;99.90;;;;;;5072520;28;20052;-76
2023/10/06 03:41:46;;;;;;;15.20;9.98;;;18.50;99.90;;;;;;5079641;28;20066;-74
2023/10/06 03:44:17;;;;;;;18.33;10.23;;;18.50;99.90;;;;;;5075528;28;20032;-76
2023/10/06 03:46:47;;;;;;;17.10;10.60;;;18.50;99.90;;;;;;5071312;28;20107;-77
2023/10/06 03:49:15;;;;;;;19.27;10.23;;;18.50;99.90;;;;;;5079993;28;20119;-76
2023/10/06 03:51:42;;;;;;;13.93;9.82;;;18.50;99.90;;;;;;5075373;28;20032;-78
2023/10/06 03:54:09;;;;;;;15.77;10.38;;;18.40;99.90;;;;;;5071292;28;20050;-77
2023/10/06 03:56:37;;;;;;;19.52;10.20;;;18.30;99.90;;;;;;5075750;28;20051;-76
2023/10/06 03:59:13;;;;;;;18.25;10.35;;;18.30;99.90;;;;;;5078075;28;20036;-78
2023/10/06 04:01:44;;;;;;;15.15;10.13;;;17.80;99.90;;;;;;5075118;28;20112;-77
2023/10/06 04:04:15;;;;;;;18.58;10.82;;;18.00;99.90;;;;;;5071425;28;20470;-78
2023/10/06 04:06:44;;;;;;;18.42;11.23;;;18.10;99.90;;;;;;5067706;28;20036;-76
2023/10/06 04:09:11;;;;;;;19.15;11.15;;;17.70;99.90;;;;;;5078777;28;20036;-79
2023/10/06 04:11:38;;;;;;;15.85;10.27;;;18.00;99.90;;;;;;5073812;28;20040;-76
2023/10/06 04:14:06;;;;;;;19.77;11.52;;;18.00;99.90;;;;;;5074612;28;20424;-76
2023/10/06 04:16:43;;;;;;;15.18;10.05;;;18.00;99.90;;;;;;5078198;28;20429;-76
2023/10/06 04:19:10;;;;;;;21.38;11.73;;;18.10;99.90;;;;;;5073135;28;20518;-77
2023/10/06 04:21:37;;;;;;;17.52;9.70;;;18.10;99.90;;;;;;5078577;28;20036;-75
2023/10/06 04:24:05;;;;;;;19.08;10.90;;;18.10;99.90;;;;;;5074873;28;20869;-76
2023/10/06 04:26:32;;;;;;;16.45;10.93;;;18.00;99.90;;;;;;5076834;28;20050;-76
2023/10/06 04:29:01;;;;;;;15.20;9.77;;;18.10;99.90;;;;;;5057220;28;20047;-76
2023/10/06 04:31:28;;;;;;;20.45;11.43;;;18.20;99.90;;;;;;5076673;28;20081;-77
2023/10/06 04:33:55;;;;;;;18.52;10.23;;;18.10;99.90;;;;;;5075672;28;20047;-75
2023/10/06 04:36:24;;;;;;;18.98;10.70;;;18.20;99.90;;;;;;5075700;28;20625;-77
2023/10/06 04:38:51;;;;;;;19.88;11.05;;;18.10;99.90;;;;;;5073295;28;20033;-76
2023/10/06 04:41:20;;;;;;;23.02;11.98;;;18.10;99.90;;;;;;5067908;28;20049;-75
2023/10/06 04:43:48;;;;;;;19.30;11.85;;;18.00;99.90;;;;;;5063320;28;20040;-77
2023/10/06 04:46:15;;;;;;;19.08;10.13;;;18.00;99.90;;;;;;5050506;28;20044;-77
2023/10/06 04:48:42;;;;;;;19.90;12.13;;;18.00;99.90;;;;;;5070145;28;20040;-76
2023/10/06 04:51:10;;;;;;;16.30;10.52;;;18.10;99.90;;;;;;5070007;28;20415;-81
2023/10/06 04:53:38;;;;;;;17.35;10.20;;;18.20;99.90;;;;;;5069703;28;20036;-79
2023/10/06 04:56:07;;;;;;;19.42;11.52;;;18.20;99.90;;;;;;5069757;28;20461;-81
2023/10/06 04:58:42;;;;;;;22.45;12.43;;;18.20;99.90;;;;;;5069754;28;20452;-79
2023/10/06 05:01:11;;;;;;;20.08;11.30;;;18.10;99.90;;;;;;5069986;28;20036;-78
2023/10/06 05:03:45;;;;;;;19.15;11.88;;;18.00;99.90;;;;;;5069823;28;20044;-78
2023/10/06 05:06:17;;;;;;;18.00;11.77;;;18.00;99.90;;;;;;5066427;28;20044;-74
2023/10/06 05:08:49;;;;;;;17.58;11.88;;;17.90;99.90;;;;;;5069977;28;20036;-78
2023/10/06 05:11:18;;;;;;;18.20;12.07;;;18.00;99.90;;;;;;5069190;28;20028;-75
2023/10/06 05:13:52;;;;;;;18.08;11.38;;;18.10;99.90;;;;;;5069500;28;20365;-77
2023/10/06 05:16:22;;;;;;;22.08;11.63;;;18.10;99.90;;;;;;5067345;28;20042;-76
2023/10/06 05:18:51;;;;;;;18.23;11.63;;;18.10;99.90;;;;;;5063713;28;20044;-73
2023/10/06 05:21:20;;;;;;;19.17;11.52;;;18.00;99.90;;;;;;5069625;28;20040;-77
2023/10/06 05:23:48;;;;;;;116.15;69.22;;;18.10;99.90;;;;;;5069028;28;20484;-77
2023/10/06 05:26:15;;;;;;;53.90;38.25;;;18.20;99.90;;;;;;5069620;28;20044;-75
2023/10/06 05:28:43;;;;;;;72.82;44.80;;;18.10;99.90;;;;;;5066774;28;20051;-79
2023/10/06 05:31:12;;;;;;;269.75;169.20;;;18.10;99.90;;;;;;5065485;28;20564;-77
2023/10/06 05:33:40;;;;;;;183.80;113.82;;;18.30;99.90;;;;;;5061442;28;20561;-77
2023/10/06 05:36:14;;;;;;;200.63;118.78;;;18.50;99.90;;;;;;5066658;28;20165;-77
2023/10/06 05:38:47;;;;;;;50.03;34.88;;;18.60;99.90;;;;;;5062879;28;20605;-75
2023/10/06 05:41:15;;;;;;;29.70;20.10;;;18.70;99.90;;;;;;5082853;28;20094;-77
2023/10/06 05:43:43;;;;;;;27.38;19.08;;;18.70;99.90;;;;;;5089277;28;20630;-75
2023/10/06 05:46:11;;;;;;;22.52;14.75;;;18.80;99.90;;;;;;5077862;28;20081;-76
2023/10/06 05:48:39;;;;;;;21.02;14.18;;;18.70;99.90;;;;;;5088435;28;20479;-81
2023/10/06 05:51:11;;;;;;;20.35;12.80;;;18.70;99.90;;;;;;5085482;28;20040;-75
2023/10/06 05:53:40;;;;;;;19.00;13.20;;;18.40;99.90;;;;;;5086356;28;20036;-74
2023/10/06 05:56:08;;;;;;;38.97;19.20;;;18.30;99.90;;;;;;5089669;28;20032;-77
2023/10/06 05:58:40;;;;;;;29.50;15.88;;;18.40;99.90;;;;;;5089600;28;20056;-77
2023/10/06 06:01:18;;;;;;;20.10;12.48;;;18.40;99.90;;;;;;5089494;28;20091;-76
2023/10/06 06:03:46;;;;;;;84.20;50.88;;;18.50;99.90;;;;;;5086096;28;20123;-76
2023/10/06 06:06:15;;;;;;;81.05;48.42;;;18.80;99.90;;;;;;5089531;28;20494;-78
2023/10/06 06:08:47;;;;;;;29.48;20.33;;;18.90;99.90;;;;;;5089333;28;20119;-81
2023/10/06 06:11:15;;;;;;;25.60;13.82;;;18.90;99.90;;;;;;5087829;28;20028;-75
2023/10/06 06:13:44;;;;;;;20.90;13.27;;;19.00;99.90;;;;;;5083031;28;20044;-73
2023/10/06 06:16:19;;;;;;;24.38;12.57;;;18.90;99.90;;;;;;5086932;28;20032;-72
2023/10/06 06:18:46;;;;;;;17.65;11.32;;;18.70;99.90;;;;;;5088811;28;20158;-72
2023/10/06 06:21:16;;;;;;;24.00;12.88;;;18.60;99.90;;;;;;5089625;28;20028;-71
2023/10/06 06:23:46;;;;;;;19.33;11.55;;;18.80;99.90;;;;;;5090770;28;20040;-73
2023/10/06 06:26:16;;;;;;;22.42;12.20;;;18.90;99.90;;;;;;5089797;28;20046;-72
2023/10/06 06:28:44;;;;;;;22.90;12.50;;;18.80;99.90;;;;;;5090083;28;20036;-73
2023/10/06 06:31:18;;;;;;;21.23;12.57;;;19.00;99.90;;;;;;5089261;28;20028;-74
2023/10/06 06:33:48;;;;;;;26.75;14.00;;;19.10;99.90;;;;;;5085037;28;20040;-70
2023/10/06 06:36:18;;;;;;;17.85;11.50;;;19.10;99.90;;;;;;5091652;28;20419;-72
2023/10/06 06:38:46;;;;;;;22.27;13.25;;;19.30;99.90;;;;;;5090221;28;20032;-73
2023/10/06 06:41:14;;;;;;;16.35;10.73;;;19.30;99.90;;;;;;5092057;28;20399;-72
2023/10/06 06:43:45;;;;;;;19.77;11.23;;;19.40;99.90;;;;;;5090453;28;20036;-72
2023/10/06 06:46:16;;;;;;;21.73;11.05;;;19.40;99.90;;;;;;5088648;28;20028;-72
2023/10/06 06:48:44;;;;;;;19.88;11.82;;;19.40;99.90;;;;;;5092061;28;20036;-74
2023/10/06 06:51:11;;;;;;;15.77;10.20;;;19.30;99.90;;;;;;5092784;28;20036;-73
2023/10/06 06:53:39;;;;;;;18.83;10.50;;;19.40;99.90;;;;;;5092522;28;20059;-75
2023/10/06 06:56:10;;;;;;;15.50;9.90;;;19.50;99.90;;;;;;5092394;28;20048;-74
2023/10/06 06:58:38;;;;;;;25.02;11.73;;;19.30;99.90;;;;;;5092659;28;20051;-73
2023/10/06 07:01:24;;;;;;;17.80;10.38;;;19.40;99.90;;;;;;5072598;28;20107;-72
2023/10/06 07:03:51;;;;;;;14.98;10.20;;;19.40;99.90;;;;;;5092480;28;20391;-74
2023/10/06 07:06:20;;;;;;;18.17;10.30;;;19.50;99.90;;;;;;5067205;28;20045;-74
2023/10/06 07:08:47;;;;;;;20.00;10.40;;;19.60;99.90;;;;;;5088024;28;20032;-74
2023/10/06 07:11:15;;;;;;;14.48;9.50;;;19.70;99.90;;;;;;5092695;28;20497;-73
2023/10/06 07:13:45;;;;;;;19.92;10.32;;;19.70;99.90;;;;;;5087679;28;20036;-72
2023/10/06 07:16:14;;;;;;;22.38;9.93;;;19.90;99.90;;;;;;5087927;28;20036;-75
2023/10/06 07:18:42;;;;;;;21.80;10.82;;;19.90;99.90;;;;;;5091104;28;20133;-75
2023/10/06 07:21:10;;;;;;;19.05;9.52;;;20.10;99.90;;;;;;5066995;28;20044;-73
2023/10/06 07:23:38;;;;;;;25.80;11.45;;;20.10;99.90;;;;;;5092475;28;20046;-72
2023/10/06 07:26:13;;;;;;;20.88;11.02;;;20.20;99.90;;;;;;5090279;28;20039;-71
2023/10/06 07:28:41;;;;;;;19.63;10.38;;;20.30;99.90;;;;;;5087644;28;20040;-72
2023/10/06 07:31:16;;;;;;;24.20;12.05;;;20.30;99.90;;;;;;5084440;28;20119;-73
2023/10/06 07:33:44;;;;;;;23.30;15.10;;;20.20;99.90;;;;;;5078917;28;20094;-74
2023/10/06 07:36:13;;;;;;;22.10;12.88;;;20.30;99.90;;;;;;5089414;28;20035;-75
2023/10/06 07:38:41;;;;;;;24.13;10.95;;;20.40;99.90;;;;;;5090052;28;20032;-74
2023/10/06 07:41:09;;;;;;;18.98;10.30;;;20.40;99.90;;;;;;5074904;28;20048;-72
2023/10/06 07:43:37;;;;;;;24.52;10.90;;;20.40;99.90;;;;;;5061507;28;20116;-74
2023/10/06 07:46:07;;;;;;;18.75;9.93;;;20.50;99.90;;;;;;5049179;28;20044;-74
2023/10/06 07:48:36;;;;;;;22.38;9.32;;;20.60;99.90;;;;;;5062984;28;20036;-73
2023/10/06 07:51:06;;;;;;;21.38;9.38;;;20.80;99.90;;;;;;5065998;28;20097;-70
2023/10/06 07:53:35;;;;;;;20.50;9.23;;;20.80;99.90;;;;;;5059610;28;20033;-71
2023/10/06 07:56:06;;;;;;;22.30;8.95;;;20.50;99.90;;;;;;5063217;28;20687;-72
2023/10/06 07:58:40;;;;;;;19.20;9.00;;;20.40;99.90;;;;;;5065923;28;20036;-72
2023/10/06 08:01:09;;;;;;;21.20;9.93;;;20.30;99.90;;;;;;5051889;28;20052;-72
2023/10/06 08:03:41;;;;;;;18.48;8.88;;;20.00;99.90;;;;;;5063023;28;20051;-74
2023/10/06 08:06:10;;;;;;;15.32;7.95;;;20.10;99.90;;;;;;5068337;28;20569;-71
2023/10/06 08:08:38;;;;;;;17.58;7.40;;;20.30;99.90;;;;;;5048027;28;20694;-72
2023/10/06 08:11:06;;;;;;;13.15;7.82;;;20.30;99.90;;;;;;5068371;28;20045;-73
2023/10/06 08:13:33;;;;;;;15.85;7.85;;;20.50;99.90;;;;;;5069993;28;20045;-74
2023/10/06 08:16:01;;;;;;;15.13;7.15;;;20.70;99.90;;;;;;5070444;28;20062;-72
2023/10/06 08:18:29;;;;;;;16.02;7.45;;;20.60;99.90;;;;;;5066790;28;20131;-72
2023/10/06 08:21:00;;;;;;;13.38;6.80;;;20.70;99.90;;;;;;5063700;28;20055;-75
2023/10/06 08:23:29;;;;;;;18.17;6.82;;;20.70;99.90;;;;;;5065513;28;20037;-72
2023/10/06 08:25:56;;;;;;;13.82;7.13;;;20.60;99.90;;;;;;5062450;28;20051;-75
2023/10/06 08:28:31;;;;;;;12.43;6.63;;;20.80;99.90;;;;;;5065137;28;20037;-72
2023/10/06 08:31:02;;;;;;;15.25;6.38;;;20.70;99.90;;;;;;5070265;28;20036;-72
2023/10/06 08:33:31;;;;;;;13.68;7.15;;;20.70;99.90;;;;;;5068005;28;20041;-70
2023/10/06 08:36:00;;;;;;;11.57;6.90;;;20.80;99.90;;;;;;5066480;28;20040;-72
2023/10/06 08:38:29;;;;;;;14.25;6.85;;;20.60;99.90;;;;;;5068437;28;20036;-72
2023/10/06 08:41:01;;;;;;;14.52;7.38;;;20.70;99.90;;;;;;5078875;28;20044;-72
2023/10/06 08:43:49;;;;;;;10.35;6.55;;;20.90;99.90;;;;;;5081491;28;20398;-71
2023/10/06 08:46:16;;;;;;;9.75;5.85;;;20.80;99.90;;;;;;5082699;28;20380;-72
2023/10/06 08:48:45;;;;;;;15.48;6.50;;;20.90;99.90;;;;;;5082399;28;20111;-74
2023/10/06 08:51:14;;;;;;;14.25;6.40;;;20.90;99.90;;;;;;5082117;28;20047;-75
2023/10/06 08:53:44;;;;;;;14.00;6.60;;;21.40;99.90;;;;;;5086680;28;20081;-73
2023/10/06 08:56:14;;;;;;;10.80;6.32;;;21.20;99.90;;;;;;5082723;28;20040;-75
2023/10/06 08:58:44;;;;;;;14.25;6.20;;;21.20;99.90;;;;;;5083586;28;20044;-72
2023/10/06 09:01:13;;;;;;;14.73;6.78;;;21.00;99.90;;;;;;5080735;28;20042;-72
2023/10/06 09:03:40;;;;;;;14.85;6.63;;;20.90;99.90;;;;;;5085047;28;20036;-71
2023/10/06 09:06:08;;;;;;;16.33;6.07;;;21.10;99.90;;;;;;5082751;28;20040;-73
2023/10/06 09:08:40;;;;;;;10.57;6.35;;;21.30;99.80;;;;;;5090278;28;20036;-73
2023/10/06 09:11:07;;;;;;;13.65;5.97;;;21.00;99.90;;;;;;5089571;28;20047;-73
2023/10/06 09:13:36;;;;;;;12.13;5.75;;;21.10;99.90;;;;;;5085459;28;20040;-71
2023/10/06 09:16:07;;;;;;;12.10;5.88;;;21.20;99.60;;;;;;5087825;28;20043;-73
2023/10/06 09:18:35;;;;;;;11.43;5.70;;;21.00;99.80;;;;;;5082655;28;20040;-74
2023/10/06 09:21:19;;;;;;;10.43;5.60;;;21.20;99.30;;;;;;5084537;28;20093;-72
2023/10/06 09:23:49;;;;;;;8.38;5.03;;;21.40;99.10;;;;;;5084913;28;20484;-72
2023/10/06 09:26:29;;;;;;;8.18;5.53;;;21.60;98.50;;;;;;5079763;28;20048;-76
2023/10/06 09:29:01;;;;;;;9.27;5.07;;;21.80;98.10;;;;;;5064899;28;20048;-75
2023/10/06 09:31:36;;;;;;;10.35;5.35;;;21.60;98.00;;;;;;5086638;28;20131;-74
2023/10/06 09:34:07;;;;;;;10.95;6.05;;;21.60;98.00;;;;;;5083627;28;20510;-77
2023/10/06 09:36:41;;;;;;;9.48;5.93;;;21.60;97.60;;;;;;5086908;28;20676;-74
2023/10/06 09:39:19;;;;;;;11.05;6.20;;;21.90;97.50;;;;;;5082040;28;20047;-74
2023/10/06 09:41:48;;;;;;;11.25;6.40;;;21.80;97.10;;;;;;5086826;28;20040;-74
2023/10/06 09:44:18;;;;;;;9.43;5.30;;;22.40;96.80;;;;;;5082511;28;20525;-76
2023/10/06 09:46:50;;;;;;;;;;;22.20;96.30;;;;;;5086166;28;20051;-74
2023/10/06 09:49:19;;;;;;;10.15;5.90;;;21.90;96.20;;;;;;5088363;28;19927;-77
2023/10/06 09:51:47;;;;;;;11.15;5.65;;;22.20;96.00;;;;;;5083809;28;20040;-72
2023/10/06 09:54:15;;;;;;;11.45;5.75;;;22.30;95.80;;;;;;5084730;28;20032;-74
2023/10/06 09:56:44;;;;;;;11.93;6.07;;;22.60;95.50;;;;;;5069290;28;20063;-71
2023/10/06 09:59:14;;;;;;;14.68;6.10;;;22.30;95.10;;;;;;5088252;28;20464;-73
2023/10/06 10:01:42;;;;;;;16.45;6.18;;;22.10;95.40;;;;;;5089196;28;20064;-73
2023/10/06 10:04:11;;;;;;;11.40;5.72;;;22.50;95.10;;;;;;5071890;28;20032;-74
2023/10/06 10:06:43;;;;;;;12.25;5.93;;;23.00;95.00;;;;;;5082801;28;20055;-73
2023/10/06 10:09:16;;;;;;;9.93;6.20;;;23.10;93.70;;;;;;5088119;28;20046;-74
2023/10/06 10:12:02;;;;;;;12.95;6.30;;;23.40;93.70;;;;;;5086798;28;20032;-74
2023/10/06 10:14:49;;;;;;;14.05;7.40;;;24.20;92.70;;;;;;5086267;28;20055;-72
2023/10/06 10:17:33;;;;;;;24.63;8.32;;;24.20;92.10;;;;;;5083689;28;20339;-73
2023/10/06 10:20:01;;;;;;;13.18;8.48;;;24.90;90.90;;;;;;5084448;28;20123;-75
2023/10/06 10:22:31;;;;;;;10.35;6.70;;;25.30;90.50;;;;;;5082175;28;20044;-73
2023/10/06 10:25:01;;;;;;;12.55;6.28;;;25.40;88.60;;;;;;5079085;28;20059;-73
2023/10/06 10:27:33;;;;;;;14.20;6.15;;;25.20;89.40;;;;;;5081536;28;20041;-74
2023/10/06 10:30:08;;;;;;;9.80;6.32;;;25.30;90.10;;;;;;5088997;28;20044;-73
2023/10/06 10:32:41;;;;;;;11.05;6.15;;;25.40;87.20;;;;;;5080099;28;20037;-72
2023/10/06 10:35:14;;;;;;;12.88;6.68;;;25.80;86.20;;;;;;5083069;28;20128;-73
2023/10/06 10:40:47;;;;;;;11.05;7.03;;;25.20;84.90;;;;;;5084576;28;20074;-71
2023/10/06 10:43:15;;;;;;;12.77;7.22;;;24.60;85.70;;;;;;5080289;28;20519;-71
2023/10/06 10:45:47;;;;;;;11.27;6.38;;;24.20;87.40;;;;;;5068849;28;20040;-73
2023/10/06 10:48:15;;;;;;;12.98;6.97;;;24.60;86.60;;;;;;5088523;28;20040;-72
2023/10/06 10:51:10;;;;;;;11.73;7.07;;;24.30;86.90;;;;;;5086338;28;20071;-75
2023/10/06 10:53:47;;;;;;;10.77;6.70;;;24.00;86.20;;;;;;5088292;28;20082;-71
2023/10/06 10:56:34;;;;;;;10.43;6.72;;;24.30;85.90;;;;;;5089173;28;20042;-71
2023/10/06 10:59:02;;;;;;;11.55;6.97;;;24.40;85.20;;;;;;5086810;28;20044;-75
2023/10/06 11:01:33;;;;;;;14.20;7.03;;;24.90;84.80;;;;;;5089201;28;20119;-71
2023/10/06 11:06:46;;;;;;;9.35;5.95;;;26.60;80.80;;;;;;5088440;28;20510;-73
2023/10/06 11:09:30;;;;;;;10.45;6.00;;;25.90;79.90;;;;;;5088931;28;20480;-72
2023/10/06 11:12:05;;;;;;;11.43;7.40;;;25.30;81.40;;;;;;5087884;28;20181;-71
2023/10/06 11:14:52;;;;;;;13.40;7.20;;;26.00;80.50;;;;;;5086980;28;20035;-73
2023/10/06 11:17:24;;;;;;;14.00;6.07;;;25.00;79.90;;;;;;5090436;28;20035;-73
2023/10/06 11:20:13;;;;;;;14.07;6.47;;;24.70;82.60;;;;;;5088241;28;20028;-72
2023/10/06 11:23:03;;;;;;;12.18;7.18;;;25.10;82.00;;;;;;5088675;28;20062;-75
2023/10/06 11:25:36;;;;;;;17.13;7.03;;;24.70;82.30;;;;;;5088415;28;20115;-74
2023/10/06 11:28:08;;;;;;;11.25;6.72;;;24.70;81.80;;;;;;5090017;28;20713;-72
2023/10/06 11:30:38;;;;;;;11.80;6.82;;;25.70;80.90;;;;;;5073224;28;20051;-73
2023/10/06 11:33:11;;;;;;;9.45;5.70;;;28.50;74.00;;;;;;5088837;28;20041;-72
2023/10/06 11:35:40;;;;;;;11.70;6.32;;;27.80;72.50;;;;;;5092003;28;20055;-72
2023/10/06 11:38:12;;;;;;;12.52;7.00;;;27.50;73.60;;;;;;5091325;28;20036;-73
2023/10/06 11:40:40;;;;;;;11.05;6.70;;;25.80;74.80;;;;;;5091092;28;20048;-72
2023/10/06 11:43:12;;;;;;;14.88;7.40;;;25.20;76.60;;;;;;5091548;28;20032;-73
2023/10/06 11:45:41;;;;;;;16.10;7.90;;;24.90;77.60;;;;;;5091960;28;20051;-73
2023/10/06 11:48:28;;;;;;;12.15;7.28;;;25.20;78.40;;;;;;5091445;28;20385;-75
2023/10/06 11:51:08;;;;;;;13.63;7.80;;;25.40;77.00;;;;;;5089086;28;20459;-74
2023/10/06 11:53:37;;;;;;;12.23;9.18;;;26.10;75.40;;;;;;5091491;28;20048;-73
2023/10/06 11:56:22;;;;;;;17.17;7.63;;;25.50;76.40;;;;;;5088457;28;20507;-72
2023/10/06 11:58:49;;;;;;;10.95;7.20;;;25.80;75.00;;;;;;5091425;28;20333;-74
2023/10/06 12:01:36;;;;;;;13.15;8.10;;;25.80;75.30;;;;;;5091429;28;20043;-74
2023/10/06 12:04:22;;;;;;;13.05;7.75;;;25.90;75.60;;;;;;5089636;28;20044;-74
2023/10/06 12:06:51;;;;;;;12.35;7.40;;;26.90;73.00;;;;;;5090988;28;20047;-71
2023/10/06 12:09:29;;;;;;;16.77;7.50;;;26.60;72.00;;;;;;5087271;28;20039;-73
2023/10/06 12:12:01;;;;;;;13.73;7.68;;;25.90;72.60;;;;;;5088659;28;20075;-73
2023/10/06 12:14:30;;;;;;;13.75;8.48;;;25.60;73.70;;;;;;5091502;28;20040;-73
2023/10/06 12:16:58;;;;;;;12.00;8.23;;;26.10;73.10;;;;;;5091293;28;20048;-73
2023/10/06 12:19:25;;;;;;;11.20;8.00;;;25.70;73.30;;;;;;5072873;28;20052;-72
2023/10/06 12:21:53;;;;;;;11.88;8.07;;;25.80;73.50;;;;;;5090237;28;20521;-72
2023/10/06 12:24:22;;;;;;;13.25;8.30;;;25.80;72.70;;;;;;5091375;28;20032;-73
2023/10/06 12:26:49;;;;;;;12.52;7.88;;;25.80;73.40;;;;;;5087229;28;20048;-72
2023/10/06 12:29:17;;;;;;;12.45;7.07;;;25.90;73.40;;;;;;5086867;28;20028;-75
2023/10/06 12:31:48;;;;;;;13.82;7.95;;;25.80;72.70;;;;;;5090941;28;20474;-72
2023/10/06 12:34:15;;;;;;;13.57;7.95;;;26.60;72.20;;;;;;5073236;28;20032;-73
2023/10/06 12:36:51;;;;;;;12.40;7.65;;;27.10;70.60;;;;;;5090545;28;20491;-73
2023/10/06 12:39:34;;;;;;;12.90;8.25;;;26.70;70.30;;;;;;5087123;28;20032;-73
2023/10/06 12:42:03;;;;;;;15.55;8.32;;;26.90;70.20;;;;;;5088537;28;20049;-73
2023/10/06 12:44:31;;;;;;;22.60;9.05;;;26.80;70.50;;;;;;5091055;28;20032;-72
2023/10/06 12:47:03;;;;;;;13.50;7.95;;;27.00;69.50;;;;;;5089830;28;20040;-74
2023/10/06 12:49:31;;;;;;;20.83;8.27;;;26.20;71.20;;;;;;5091282;28;20032;-75
2023/10/06 12:51:59;;;;;;;10.45;6.63;;;26.50;70.30;;;;;;5089857;28;20487;-72
2023/10/06 12:54:26;;;;;;;15.02;7.03;;;25.40;72.60;;;;;;5090254;28;20154;-72
2023/10/06 12:56:53;;;;;;;14.00;7.22;;;25.70;73.10;;;;;;5087134;28;20032;-73
2023/10/06 12:59:20;;;;;;;13.00;6.68;;;26.10;71.30;;;;;;5090783;28;20032;-72
2023/10/06 13:01:49;;;;;;;22.90;8.27;;;25.80;71.20;;;;;;5090281;28;20126;-73
2023/10/06 13:04:17;;;;;;;10.75;6.90;;;25.80;71.30;;;;;;5090175;28;20047;-73
2023/10/06 13:06:47;;;;;;;13.85;6.88;;;26.00;71.00;;;;;;5089876;28;20039;-74
2023/10/06 13:09:21;;;;;;;11.38;7.00;;;26.70;69.30;;;;;;5090387;28;20040;-71
2023/10/06 13:11:48;;;;;;;9.23;6.82;;;27.40;68.00;;;;;;5067601;28;20483;-73